Time;durP1;ratioP1;P1;durP2;ratioP2;P2;SDS_P1;SDS_P2;PMS_P1;PMS_P2;Temp;Humidity;BMP_temperature;BMP_pressure;BME280_temperature;BME280_humidity;BME280_pressure;Samples;Min_cycle;Max_cycle;Signal;HPM_P1;HPM_P2
2023/11/26 00:01:07;;;;;;;2.60;1.30;;;;;;;-0.77;100.00;101135.25;4896624;29;20074;-76
2023/11/26 00:03:34;;;;;;;3.28;2.13;;;;;;;-0.79;100.00;101142.53;4901854;29;20044;-81
2023/11/26 00:05:59;;;;;;;2.40;1.48;;;;;;;-0.83;100.00;101137.63;4879395;29;20039;-79
2023/11/26 00:08:25;;;;;;;4.35;1.27;;;;;;;-0.72;100.00;101133.72;4875444;29;20042;-81
2023/11/26 00:10:51;;;;;;;3.65;1.42;;;;;;;-0.71;100.00;101139.78;4890881;29;20123;-75
2023/11/26 00:13:17;;;;;;;2.95;1.60;;;;;;;-0.69;100.00;101141.22;4888606;29;20032;-75
2023/11/26 00:15:43;;;;;;;3.05;1.63;;;;;;;-0.78;100.00;101146.78;4902809;29;20058;-81
2023/11/26 00:18:08;;;;;;;2.20;1.38;;;;;;;-0.72;100.00;101148.69;4910035;29;20413;-78
2023/11/26 00:20:34;;;;;;;3.75;1.35;;;;;;;-0.77;100.00;101145.78;4908112;29;20047;-81
2023/11/26 00:23:02;;;;;;;2.17;1.30;;;;;;;-0.84;100.00;101143.06;4903951;29;20086;-82
2023/11/26 00:25:30;;;;;;;2.42;1.40;;;;;;;-0.78;100.00;101146.78;4893316;29;20044;-79
2023/11/26 00:27:58;;;;;;;3.28;1.52;;;;;;;-0.82;100.00;101147.13;4902071;29;20047;-79
2023/11/26 00:30:25;;;;;;;3.85;1.15;;;;;;;-0.80;100.00;101157.50;4899674;29;20055;-75
2023/11/26 00:32:51;;;;;;;3.05;1.63;;;;;;;-0.74;100.00;101148.06;4879343;29;20031;-80
2023/11/26 00:35:18;;;;;;;2.58;1.55;;;;;;;-0.77;100.00;101145.78;4896850;29;20038;-74
2023/11/26 00:37:46;;;;;;;4.20;1.48;;;;;;;-0.79;100.00;101153.06;4870965;29;20047;-78
2023/11/26 00:40:12;;;;;;;3.85;1.90;;;;;;;-0.84;100.00;101161.47;4888802;29;20027;-74
2023/11/26 00:42:39;;;;;;;3.50;1.50;;;;;;;-0.87;100.00;101146.91;4890543;29;20056;-76
2023/11/26 00:45:05;;;;;;;2.70;1.05;;;;;;;-0.90;100.00;101162.22;4885778;29;20872;-75
2023/11/26 00:47:32;;;;;;;3.00;1.20;;;;;;;-0.89;100.00;101154.13;4891985;29;20036;-73
2023/11/26 00:50:01;;;;;;;3.08;1.58;;;;;;;-0.83;100.00;101165.75;4893105;29;20036;-76
2023/11/26 00:52:27;;;;;;;3.95;1.30;;;;;;;-0.83;100.00;101161.28;4886720;29;20182;-76
2023/11/26 00:54:53;;;;;;;3.17;1.02;;;;;;;-0.85;100.00;101168.56;4903789;29;20234;-77
2023/11/26 00:57:18;;;;;;;3.83;1.33;;;;;;;-0.88;100.00;101160.22;4891951;29;20116;-79
2023/11/26 00:59:44;;;;;;;3.63;1.65;;;;;;;-0.90;100.00;101170.09;4910032;29;20028;-76
2023/11/26 01:02:11;;;;;;;4.07;1.40;;;;;;;-0.93;100.00;101181.81;4893108;29;20036;-86
2023/11/26 01:04:38;;;;;;;4.50;1.65;;;;;;;-0.94;100.00;101185.44;4923785;29;20106;-81
2023/11/26 01:07:05;;;;;;;4.47;1.80;;;;;;;-0.97;100.00;101187.59;4909872;29;20035;-81
2023/11/26 01:09:32;;;;;;;5.30;1.20;;;;;;;-1.04;100.00;101197.22;4910855;29;20043;-81
2023/11/26 01:12:00;;;;;;;2.97;1.20;;;;;;;-1.02;100.00;101200.47;4895796;29;20039;-81
2023/11/26 01:14:27;;;;;;;5.75;1.35;;;;;;;-1.01;100.00;101202.13;4884228;29;20032;-81
2023/11/26 01:16:53;;;;;;;3.72;1.52;;;;;;;-1.07;100.00;101193.16;4896268;29;20098;-79
2023/11/26 01:19:20;;;;;;;4.30;1.23;;;;;;;-1.12;100.00;101198.13;4896938;29;20039;-82
2023/11/26 01:21:46;;;;;;;3.80;1.33;;;;;;;-1.13;100.00;101201.75;4897200;29;20055;-79
2023/11/26 01:24:12;;;;;;;4.03;1.55;;;;;;;-1.15;100.00;101201.97;4886399;29;20527;-79
2023/11/26 01:26:38;;;;;;;3.25;1.50;;;;;;;-1.14;100.00;101200.13;4897073;29;20072;-79
2023/11/26 01:29:04;;;;;;;4.43;1.30;;;;;;;-1.21;100.00;101207.94;4883134;29;20043;-82
2023/11/26 01:31:30;;;;;;;2.60;1.27;;;;;;;-1.17;100.00;101208.38;4906116;29;20043;-78
2023/11/26 01:33:59;;;;;;;4.30;1.75;;;;;;;-1.20;100.00;101203.50;4892943;29;20079;-80
2023/11/26 01:36:25;;;;;;;2.85;1.30;;;;;;;-1.17;100.00;101209.19;4895135;29;20134;-80
2023/11/26 01:38:54;;;;;;;3.15;1.65;;;;;;;-1.25;100.00;101206.66;4895310;29;20040;-84
2023/11/26 01:41:21;;;;;;;4.85;1.42;;;;;;;-1.23;100.00;101209.09;4888336;29;20075;-81
2023/11/26 01:43:46;;;;;;;3.45;1.30;;;;;;;-1.22;100.00;101202.84;4894696;29;20051;-82
2023/11/26 01:46:13;;;;;;;5.63;1.40;;;;;;;-1.24;100.00;101207.47;4906599;29;20043;-82
2023/11/26 01:48:40;;;;;;;1.98;1.30;;;;;;;-1.29;100.00;101215.06;4888165;29;20043;-80
2023/11/26 01:51:10;;;;;;;4.90;1.60;;;;;;;-1.32;100.00;101207.56;4878599;29;20024;-80
2023/11/26 01:53:40;;;;;;;2.90;1.20;;;;;;;-1.40;100.00;101219.78;4906451;29;20036;-80
2023/11/26 01:56:07;;;;;;;3.28;1.60;;;;;;;-1.44;100.00;101218.50;4877622;29;20027;-80
2023/11/26 01:58:36;;;;;;;7.10;1.33;;;;;;;-1.42;100.00;101218.34;4888430;29;20054;-81
2023/11/26 02:01:03;;;;;;;3.35;1.30;;;;;;;-1.44;100.00;101217.69;4865090;29;20051;-85
2023/11/26 02:03:30;;;;;;;2.67;1.20;;;;;;;-1.47;100.00;101215.41;4908229;29;20438;-79
2023/11/26 02:05:57;;;;;;;3.03;1.20;;;;;;;-1.47;100.00;101218.88;4925319;29;20198;-80
2023/11/26 02:08:26;;;;;;;2.20;1.10;;;;;;;-1.53;100.00;101213.50;4894687;29;20040;-82
2023/11/26 02:10:53;;;;;;;2.58;1.40;;;;;;;-1.51;100.00;101222.84;4898521;29;20516;-78
2023/11/26 02:13:21;;;;;;;5.97;1.55;;;;;;;-1.52;100.00;101221.19;4899693;29;20054;-78
2023/11/26 02:15:46;;;;;;;2.88;1.55;;;;;;;-1.59;100.00;101215.03;4855826;29;20159;-82
2023/11/26 02:18:14;;;;;;;4.85;1.33;;;;;;;-1.56;100.00;101225.16;4892882;29;20039;-82
2023/11/26 02:20:41;;;;;;;5.82;1.63;;;;;;;-1.58;100.00;101221.09;4909445;29;20122;-82
2023/11/26 02:23:07;;;;;;;3.55;1.52;;;;;;;-1.59;100.00;101227.34;4895645;29;20151;-80
2023/11/26 02:25:35;;;;;;;4.30;1.30;;;;;;;-1.61;100.00;101234.59;4911005;29;20051;-82
2023/11/26 02:28:01;;;;;;;;;;;;;;;-1.62;100.00;101243.47;4889052;29;20046;-82
2023/11/26 02:30:27;;;;;;;2.78;1.50;;;;;;;-1.67;100.00;101244.00;4894270;29;19923;-84
2023/11/26 02:32:53;;;;;;;4.20;1.40;;;;;;;-1.69;100.00;101238.13;4867597;29;20038;-83
2023/11/26 02:35:20;;;;;;;2.85;1.10;;;;;;;-1.70;100.00;101239.09;4897353;29;20046;-80
2023/11/26 02:37:47;;;;;;;3.40;1.45;;;;;;;-1.71;100.00;101251.41;4908227;29;20040;-81
2023/11/26 02:40:15;;;;;;;2.97;1.50;;;;;;;-1.75;100.00;101241.44;4886996;29;20043;-79
2023/11/26 02:42:42;;;;;;;3.97;1.40;;;;;;;-1.80;100.00;101241.16;4883661;29;20075;-82
2023/11/26 02:45:08;;;;;;;3.40;1.60;;;;;;;-1.78;100.00;101241.78;4891846;29;20116;-81
2023/11/26 02:47:34;;;;;;;4.10;1.55;;;;;;;-1.83;100.00;101233.59;4887053;29;20521;-83
2023/11/26 02:50:04;;;;;;;4.38;1.60;;;;;;;-1.85;100.00;101238.22;4880392;29;20078;-80
2023/11/26 02:52:31;;;;;;;2.33;1.40;;;;;;;-1.89;100.00;101234.34;4887931;29;20036;-88
2023/11/26 02:55:05;;;;;;;3.22;1.20;;;;;;;-1.86;100.00;101233.97;4905855;29;20095;-82
2023/11/26 02:57:32;;;;;;;4.07;1.20;;;;;;;-1.87;100.00;101233.16;4903602;29;20513;-85
2023/11/26 03:00:15;;;;;;;3.85;1.48;;;;;;;-1.85;100.00;101233.78;4914789;29;20143;-81
2023/11/26 03:02:44;;;;;;;2.45;1.30;;;;;;;-1.87;100.00;101232.34;4892401;29;20103;-84
2023/11/26 03:05:21;;;;;;;5.00;1.58;;;;;;;-1.90;100.00;101223.00;4889241;29;20044;-79
2023/11/26 03:07:57;;;;;;;3.97;1.80;;;;;;;-1.88;100.00;101239.41;4906682;29;20036;-81
2023/11/26 03:13:12;;;;;;;2.40;1.33;;;;;;;-1.88;100.00;101235.97;4909005;29;20031;-81
2023/11/26 03:15:42;;;;;;;4.72;1.63;;;;;;;-1.93;100.00;101244.34;4899884;29;20154;-82
2023/11/26 03:18:08;;;;;;;3.67;1.50;;;;;;;-1.91;100.00;101250.25;4903210;29;20074;-85
2023/11/26 03:20:37;;;;;;;3.10;1.58;;;;;;;-1.89;100.00;101255.34;4879008;29;20039;-86
2023/11/26 03:23:04;;;;;;;4.15;1.42;;;;;;;-1.93;100.00;101255.66;4872634;29;20119;-86
2023/11/26 03:25:31;;;;;;;2.35;1.52;;;;;;;-1.95;100.00;101259.47;4891391;29;20054;-81
2023/11/26 03:28:00;;;;;;;4.30;1.70;;;;;;;-1.98;100.00;101252.75;4873474;29;20421;-79
2023/11/26 03:30:26;;;;;;;4.40;1.67;;;;;;;-1.99;100.00;101255.56;4884533;29;20036;-81
2023/11/26 03:33:00;;;;;;;3.35;1.70;;;;;;;-1.99;100.00;101258.19;4912593;29;20603;-83
2023/11/26 03:35:29;;;;;;;3.45;1.63;;;;;;;-1.99;100.00;101253.75;4893259;29;20035;-80
2023/11/26 03:37:55;;;;;;;4.10;1.70;;;;;;;-2.01;100.00;101253.09;4886926;29;20039;-79
2023/11/26 03:40:23;;;;;;;2.53;1.40;;;;;;;-2.02;100.00;101246.22;4891225;29;20152;-82
2023/11/26 03:42:50;;;;;;;2.65;1.75;;;;;;;-2.03;100.00;101241.97;4901980;29;20063;-81
2023/11/26 03:45:15;;;;;;;2.20;1.38;;;;;;;-2.08;100.00;101239.06;4906142;29;20036;-80
2023/11/26 03:47:42;;;;;;;2.70;1.50;;;;;;;-2.09;100.00;101255.78;4891116;29;20099;-81
2023/11/26 03:50:11;;;;;;;3.70;2.00;;;;;;;-2.07;100.00;101258.25;4890598;29;20141;-82
2023/11/26 03:52:38;;;;;;;3.78;1.48;;;;;;;-2.07;100.00;101253.81;4878199;29;20050;-80
2023/11/26 03:55:10;;;;;;;2.85;1.55;;;;;;;-2.05;100.00;101266.75;4874578;29;20063;-86
2023/11/26 03:57:40;;;;;;;3.83;1.75;;;;;;;-2.07;100.00;101263.47;4879642;29;20068;-78
2023/11/26 04:00:10;;;;;;;6.47;1.98;;;;;;;-2.06;100.00;101263.31;4891322;29;20051;-82
2023/11/26 04:02:42;;;;;;;5.25;1.60;;;;;;;-2.03;100.00;101267.38;4913672;29;20032;-80
2023/11/26 04:05:11;;;;;;;7.10;1.90;;;;;;;-1.97;100.00;101274.56;4870859;29;20115;-81
2023/11/26 04:07:37;;;;;;;3.20;1.42;;;;;;;-1.96;100.00;101271.78;4893944;29;20035;-79
2023/11/26 04:10:06;;;;;;;3.17;1.80;;;;;;;-1.96;100.00;101277.03;4901376;29;20040;-81
2023/11/26 04:12:33;;;;;;;3.60;1.13;;;;;;;-1.95;100.00;101270.78;4881203;29;20130;-81
2023/11/26 04:15:03;;;;;;;3.08;1.60;;;;;;;-1.94;100.00;101267.16;4894482;29;20509;-82
2023/11/26 04:17:30;;;;;;;3.85;1.65;;;;;;;-1.92;100.00;101272.25;4884574;29;20044;-81
2023/11/26 04:20:00;;;;;;;2.78;1.70;;;;;;;-1.89;100.00;101271.09;4910736;29;20035;-83
2023/11/26 04:22:27;;;;;;;4.18;1.38;;;;;;;-1.90;100.00;101269.44;4885117;29;20120;-81
2023/11/26 04:24:54;;;;;;;4.60;1.77;;;;;;;-1.89;100.00;101278.97;4863460;29;20153;-82
2023/11/26 04:27:21;;;;;;;3.00;1.90;;;;;;;-1.92;100.00;101267.81;4881416;29;20031;-80
2023/11/26 04:29:48;;;;;;;5.05;1.80;;;;;;;-1.90;100.00;101267.63;4908003;29;20051;-81
2023/11/26 04:32:14;;;;;;;3.92;1.70;;;;;;;-1.87;100.00;101282.22;4889094;29;20040;-80
2023/11/26 04:34:40;;;;;;;4.07;1.90;;;;;;;-1.90;100.00;101279.94;4894056;29;20059;-81
2023/11/26 04:37:11;;;;;;;2.70;1.75;;;;;;;-1.87;100.00;101292.72;4905061;29;20104;-82
2023/11/26 04:39:38;;;;;;;3.03;1.63;;;;;;;-1.85;100.00;101288.94;4909306;29;20048;-80
2023/11/26 04:42:06;;;;;;;4.95;2.13;;;;;;;-1.84;100.00;101289.75;4879152;29;20047;-80
2023/11/26 04:44:35;;;;;;;4.28;1.70;;;;;;;-1.85;100.00;101283.66;4904463;29;20032;-80
2023/11/26 04:47:01;;;;;;;3.22;1.95;;;;;;;-1.87;100.00;101292.72;4892507;29;20040;-81
2023/11/26 04:49:27;;;;;;;3.00;1.60;;;;;;;-1.85;100.00;101285.47;4879276;29;20409;-80
2023/11/26 04:51:53;;;;;;;3.63;1.80;;;;;;;-1.85;100.00;101288.09;4876978;29;20031;-79
2023/11/26 04:54:21;;;;;;;2.70;1.17;;;;;;;-1.83;100.00;101286.13;4879652;29;20477;-77
2023/11/26 04:56:49;;;;;;;2.60;1.42;;;;;;;-1.81;100.00;101289.41;4890801;24;20638;-71
2023/11/26 04:59:15;;;;;;;4.13;1.88;;;;;;;-1.82;100.00;101287.78;4887053;29;20153;-71
2023/11/26 05:01:44;;;;;;;3.67;1.50;;;;;;;-1.84;100.00;101289.75;4874068;29;20047;-71
2023/11/26 05:04:13;;;;;;;3.00;1.50;;;;;;;-1.84;100.00;101295.00;4905521;29;20546;-72
2023/11/26 05:06:39;;;;;;;2.85;1.85;;;;;;;-1.83;100.00;101296.63;4916056;29;20040;-72
2023/11/26 05:09:10;;;;;;;4.60;2.10;;;;;;;-1.87;100.00;101292.72;4919956;29;20054;-72
2023/11/26 05:11:36;;;;;;;2.80;1.98;;;;;;;-1.87;100.00;101297.97;4922535;29;20027;-72
2023/11/26 05:14:02;;;;;;;3.28;2.10;;;;;;;-1.85;100.00;101298.63;4872667;29;20524;-72
2023/11/26 05:16:28;;;;;;;2.60;1.60;;;;;;;-1.86;100.00;101296.97;4903266;29;20028;-72
2023/11/26 05:18:54;;;;;;;6.47;1.83;;;;;;;-1.87;100.00;101306.66;4919286;29;20214;-72
2023/11/26 05:21:19;;;;;;;4.25;2.00;;;;;;;-1.89;100.00;101302.59;4897387;29;20032;-72
2023/11/26 05:23:45;;;;;;;4.00;1.40;;;;;;;-1.90;100.00;101301.75;4919744;29;20035;-73
2023/11/26 05:26:14;;;;;;;3.00;1.52;;;;;;;-1.90;100.00;101309.63;4924507;29;20067;-72
2023/11/26 05:28:40;;;;;;;2.85;1.70;;;;;;;-1.92;100.00;101301.13;4904894;29;20130;-72
2023/11/26 05:31:05;;;;;;;4.07;2.15;;;;;;;-1.93;100.00;101297.66;4913817;29;20115;-72
2023/11/26 05:33:31;;;;;;;4.82;1.85;;;;;;;-1.94;100.00;101290.78;4904447;29;20047;-72
2023/11/26 05:35:56;;;;;;;4.45;2.08;;;;;;;-1.95;100.00;101301.47;4903470;29;20047;-73
2023/11/26 05:38:22;;;;;;;3.88;2.03;;;;;;;-1.97;100.00;101304.25;4901898;29;20135;-71
2023/11/26 05:40:48;;;;;;;3.47;1.80;;;;;;;-1.96;100.00;101311.16;4920682;29;20031;-72
2023/11/26 05:43:14;;;;;;;6.75;2.20;;;;;;;-1.95;100.00;101306.72;4901415;29;20040;-72
2023/11/26 05:45:39;;;;;;;3.60;2.00;;;;;;;-1.94;100.00;101306.53;4911770;29;20040;-73
2023/11/26 05:48:06;;;;;;;4.43;2.35;;;;;;;-1.89;100.00;101308.66;4909195;29;20036;-72
2023/11/26 05:50:32;;;;;;;3.55;2.00;;;;;;;-1.88;100.00;101301.59;4908297;29;20526;-72
2023/11/26 05:52:57;;;;;;;3.10;2.20;;;;;;;-1.83;100.00;101301.88;4909256;29;20051;-72
2023/11/26 05:55:24;;;;;;;5.20;2.00;;;;;;;-1.81;100.00;101284.97;4877805;29;20038;-73
2023/11/26 05:57:50;;;;;;;4.22;2.30;;;;;;;-1.74;100.00;101274.59;4908418;29;20035;-73
2023/11/26 06:00:15;;;;;;;6.50;2.58;;;;;;;-1.67;100.00;101286.03;4924480;29;20040;-72
2023/11/26 06:02:41;;;;;;;3.10;2.00;;;;;;;-1.62;100.00;101294.19;4889734;29;20062;-72
2023/11/26 06:05:08;;;;;;;5.25;2.60;;;;;;;-1.61;100.00;101298.44;4902884;29;20568;-72
2023/11/26 06:07:34;;;;;;;4.32;2.10;;;;;;;-1.59;100.00;101299.09;4916542;29;20040;-73
2023/11/26 06:10:00;;;;;;;3.80;2.38;;;;;;;-1.55;100.00;101307.44;4906168;29;20039;-73
2023/11/26 06:12:26;;;;;;;5.28;2.15;;;;;;;-1.54;100.00;101304.63;4924422;29;20035;-72
2023/11/26 06:14:51;;;;;;;3.78;1.88;;;;;;;-1.52;100.00;101296.56;4897978;29;20523;-73
2023/11/26 06:17:17;;;;;;;5.15;2.20;;;;;;;-1.51;100.00;101295.56;4907539;29;20036;-73
2023/11/26 06:19:44;;;;;;;4.22;2.20;;;;;;;-1.49;100.00;101283.06;4894717;29;20172;-72
2023/11/26 06:22:10;;;;;;;;;;;;;;;-1.43;100.00;101283.16;4914956;29;20051;-73
2023/11/26 06:24:35;;;;;;;3.03;2.03;;;;;;;-1.38;100.00;101285.28;4906122;29;19915;-72
2023/11/26 06:27:01;;;;;;;4.30;2.17;;;;;;;-1.36;100.00;101291.16;4908231;29;20147;-72
2023/11/26 06:29:26;;;;;;;4.22;2.00;;;;;;;-1.34;100.00;101285.75;4909261;29;20382;-72
2023/11/26 06:31:52;;;;;;;3.58;2.00;;;;;;;-1.32;100.00;101283.75;4918882;29;20143;-73
2023/11/26 06:34:25;;;;;;;3.85;2.17;;;;;;;-1.32;100.00;101289.81;4894023;29;20113;-73
2023/11/26 06:36:50;;;;;;;3.10;1.92;;;;;;;-1.32;100.00;101300.34;4889192;29;20047;-73
2023/11/26 06:39:16;;;;;;;5.32;2.65;;;;;;;-1.31;100.00;101301.97;4894378;29;20147;-73
2023/11/26 06:41:41;;;;;;;3.88;1.95;;;;;;;-1.30;100.00;101297.53;4888678;29;20413;-72
2023/11/26 06:44:07;;;;;;;5.05;2.00;;;;;;;-1.29;100.00;101305.22;4904296;29;20533;-73
2023/11/26 06:46:33;;;;;;;7.78;2.50;;;;;;;-1.27;100.00;101300.63;4891273;29;20040;-73
2023/11/26 06:48:59;;;;;;;3.95;2.20;;;;;;;-1.28;100.00;101312.13;4920618;29;20100;-73
2023/11/26 06:51:24;;;;;;;2.92;1.85;;;;;;;-1.30;100.00;101308.84;4905337;29;20039;-73
2023/11/26 06:53:51;;;;;;;3.13;1.90;;;;;;;-1.29;100.00;101302.59;4907375;29;20539;-72
2023/11/26 06:56:17;;;;;;;3.30;1.77;;;;;;;-1.27;100.00;101302.44;4919105;29;20028;-73
2023/11/26 06:58:44;;;;;;;3.40;1.92;;;;;;;-1.25;100.00;101300.44;4907443;29;20509;-73
2023/11/26 07:01:11;;;;;;;4.88;2.42;;;;;;;-1.24;100.00;101307.31;4904836;29;20039;-72
2023/11/26 07:03:37;;;;;;;;;;;;;;;-1.23;100.00;101299.25;4893350;29;20043;-73
2023/11/26 07:06:10;;;;;;;3.53;2.10;;;;;;;-1.19;100.00;101299.72;4899100;29;19946;-73
2023/11/26 07:08:38;;;;;;;4.53;2.00;;;;;;;-1.17;100.00;101295.91;4895326;29;20465;-73
2023/11/26 07:11:06;;;;;;;5.63;2.40;;;;;;;-1.15;100.00;101286.06;4909678;29;20023;-73
2023/11/26 07:13:33;;;;;;;3.70;1.83;;;;;;;-1.12;100.00;101290.13;4895599;29;20063;-72
2023/11/26 07:15:59;;;;;;;4.85;2.25;;;;;;;-1.08;100.00;101287.94;4893104;29;20039;-73
2023/11/26 07:18:25;;;;;;;3.28;2.40;;;;;;;-1.07;100.00;101282.53;4919494;29;20036;-73
2023/11/26 07:20:51;;;;;;;4.82;2.75;;;;;;;-1.01;100.00;101289.72;4906229;29;20035;-73
2023/11/26 07:23:17;;;;;;;6.90;2.97;;;;;;;-0.99;100.00;101292.97;4902519;29;20416;-72
2023/11/26 07:25:44;;;;;;;4.35;2.60;;;;;;;-0.97;100.00;101288.34;4905171;29;20533;-73
2023/11/26 07:28:13;;;;;;;4.97;3.80;;;;;;;-0.96;100.00;101274.19;4905549;29;20048;-73
2023/11/26 07:30:40;;;;;;;7.60;3.33;;;;;;;-0.96;100.00;101262.84;4927862;29;20110;-73
2023/11/26 07:33:06;;;;;;;7.45;4.15;;;;;;;-0.95;100.00;101259.22;4905815;29;20032;-73
2023/11/26 07:35:31;;;;;;;7.05;3.38;;;;;;;-0.96;100.00;101242.63;4896257;29;20707;-73
2023/11/26 07:38:01;;;;;;;4.97;3.15;;;;;;;-0.96;100.00;101241.81;4877395;29;20036;-72
2023/11/26 07:40:33;;;;;;;6.13;3.88;;;;;;;-0.92;100.00;101249.19;4902335;29;20048;-73
2023/11/26 07:42:59;;;;;;;8.70;4.50;;;;;;;-0.90;100.00;101246.34;4918923;29;20032;-73
2023/11/26 07:45:26;;;;;;;8.23;3.65;;;;;;;-0.86;100.00;101243.19;4908862;29;20047;-73
2023/11/26 07:47:52;;;;;;;5.00;3.17;;;;;;;-0.85;100.00;101255.34;4914400;29;20557;-73
2023/11/26 07:50:18;;;;;;;4.78;2.58;;;;;;;-0.84;100.00;101261.41;4925314;29;20119;-73
2023/11/26 07:52:43;;;;;;;3.67;2.60;;;;;;;-0.83;100.00;101265.66;4875990;29;20090;-73
2023/11/26 07:55:09;;;;;;;3.97;2.75;;;;;;;-0.83;100.00;101269.09;4874980;29;20387;-73
2023/11/26 07:57:37;;;;;;;3.40;2.20;;;;;;;-0.78;100.00;101265.13;4913745;29;20049;-73
2023/11/26 08:00:04;;;;;;;4.15;2.35;;;;;;;-0.74;100.00;101274.31;4903012;29;20034;-73
2023/11/26 08:02:40;;;;;;;4.05;2.60;;;;;;;-0.73;100.00;101268.84;4920002;29;20091;-73
2023/11/26 08:05:08;;;;;;;5.03;2.85;;;;;;;-0.76;100.00;101266.56;4903948;29;20032;-73
2023/11/26 08:07:36;;;;;;;4.13;2.17;;;;;;;-0.72;100.00;101280.19;4906295;29;20044;-73
2023/11/26 08:10:09;;;;;;;3.95;2.20;;;;;;;-0.69;100.00;101279.81;4907664;29;20031;-74
2023/11/26 08:12:39;;;;;;;4.10;2.20;;;;;;;-0.67;100.00;101267.31;4907587;29;20036;-73
2023/11/26 08:15:12;;;;;;;4.47;2.55;;;;;;;-0.65;100.00;101260.03;4903164;29;20401;-73
2023/11/26 08:17:39;;;;;;;4.18;2.20;;;;;;;-0.62;100.00;101257.03;4897841;29;20126;-74
2023/11/26 08:20:09;;;;;;;4.13;2.42;;;;;;;-0.61;100.00;101266.56;4905333;29;20046;-73
2023/11/26 08:22:40;;;;;;;5.65;2.60;;;;;;;-0.59;100.00;101254.06;4924189;29;20068;-73
2023/11/26 08:25:12;;;;;;;4.68;2.63;;;;;;;-0.57;100.00;101265.19;4918648;29;20037;-73
2023/11/26 08:27:44;;;;;;;3.83;1.70;;;;;;;-0.54;100.00;101256.97;4868451;29;20099;-73
2023/11/26 08:30:30;;;;;;;4.75;2.72;;;;;;;-0.53;100.00;101263.84;4923519;29;20035;-73
2023/11/26 08:32:58;;;;;;;5.05;2.38;;;;;;;-0.52;100.00;101257.56;4921990;29;20046;-73
2023/11/26 08:35:29;;;;;;;3.38;2.10;;;;;;;-0.50;100.00;101262.66;4888109;29;20031;-73
2023/11/26 08:37:56;;;;;;;4.45;2.55;;;;;;;-0.50;100.00;101257.38;4923092;29;20067;-73
2023/11/26 08:40:25;;;;;;;4.13;2.50;;;;;;;-0.47;100.00;101262.31;4883202;29;21367;-73
2023/11/26 08:42:54;;;;;;;3.30;2.33;;;;;;;-0.45;100.00;101261.09;4903627;29;20076;-73
2023/11/26 08:45:23;;;;;;;6.20;3.00;;;;;;;-0.43;100.00;101267.00;4885943;29;20047;-73
2023/11/26 08:47:49;;;;;;;6.45;3.72;;;;;;;-0.43;100.00;101261.72;4888166;29;20118;-73
2023/11/26 08:50:15;;;;;;;8.50;4.78;;;;;;;-0.42;100.00;101273.88;4901504;29;20119;-73
2023/11/26 08:52:42;;;;;;;5.47;3.47;;;;;;;-0.41;100.00;101267.59;4907729;29;20398;-74
2023/11/26 08:55:09;;;;;;;7.50;5.00;;;;;;;-0.40;100.00;101264.00;4917142;29;20040;-73
2023/11/26 08:57:39;;;;;;;6.88;4.28;;;;;;;-0.38;100.00;101267.25;4886563;29;20083;-73
2023/11/26 09:00:09;;;;;;;7.55;4.45;;;;;;;-0.36;100.00;101260.00;4906898;29;20541;-73
2023/11/26 09:02:39;;;;;;;5.50;3.90;;;;;;;-0.35;100.00;101256.34;4904831;29;20511;-73
2023/11/26 09:05:09;;;;;;;5.65;4.03;;;;;;;-0.33;100.00;101258.81;4899254;29;20044;-73
2023/11/26 09:07:42;;;;;;;6.80;3.72;;;;;;;-0.33;100.00;101266.72;4901947;29;20164;-73
2023/11/26 09:10:09;;;;;;;6.03;3.63;;;;;;;-0.34;100.00;101268.53;4918191;29;20040;-73
2023/11/26 09:12:37;;;;;;;4.35;2.63;;;;;;;-0.32;100.00;101274.41;4921286;29;20054;-74
2023/11/26 09:15:07;;;;;;;4.45;3.05;;;;;;;-0.31;100.00;101272.59;4910845;29;20040;-74
2023/11/26 09:17:33;;;;;;;4.05;3.00;;;;;;;-0.30;100.00;101275.03;4903446;29;20047;-74
2023/11/26 09:19:59;;;;;;;5.32;3.05;;;;;;;-0.30;100.00;101261.88;4926631;29;20035;-73
2023/11/26 09:22:25;;;;;;;5.65;3.00;;;;;;;-0.30;100.00;101259.25;4909754;29;20043;-73
2023/11/26 09:24:50;;;;;;;4.30;2.95;;;;;;;-0.26;100.00;101264.16;4893449;29;20040;-73
2023/11/26 09:27:16;;;;;;;5.30;3.20;;;;;;;-0.22;100.00;101260.13;4905472;29;20507;-74
2023/11/26 09:29:42;;;;;;;5.30;3.50;;;;;;;-0.22;100.00;101266.22;4923587;29;20087;-72
2023/11/26 09:32:08;;;;;;;6.65;3.63;;;;;;;-0.21;100.00;101267.03;4906895;29;20035;-73
2023/11/26 09:34:34;;;;;;;5.15;3.67;;;;;;;-0.19;100.00;101268.50;4905283;29;20036;-72
2023/11/26 09:37:04;;;;;;;7.88;5.00;;;;;;;-0.19;100.00;101267.69;4924163;29;20031;-73
2023/11/26 09:39:33;;;;;;;8.32;4.97;;;;;;;-0.19;100.00;101272.94;4911361;29;20050;-73
2023/11/26 09:42:03;;;;;;;8.45;3.92;;;;;;;-0.17;100.00;101258.59;4895282;29;20050;-73
2023/11/26 09:44:29;;;;;;;6.63;3.92;;;;;;;-0.14;100.00;101274.00;4903497;29;20095;-72
2023/11/26 09:46:56;;;;;;;8.90;4.20;;;;;;;-0.14;100.00;101274.00;4920436;29;20055;-73
2023/11/26 09:49:21;;;;;;;8.75;4.35;;;;;;;-0.12;100.00;101279.91;4917532;29;20090;-72
2023/11/26 09:51:54;;;;;;;7.63;3.85;;;;;;;-0.10;100.00;101274.44;4903884;29;20694;-72
2023/11/26 09:54:20;;;;;;;6.82;3.72;;;;;;;-0.07;100.00;101274.06;4888979;29;20047;-73
2023/11/26 09:56:47;;;;;;;8.50;4.07;;;;;;;-0.06;100.00;101276.53;4902016;29;20098;-72
2023/11/26 09:59:42;;;;;;;5.60;4.07;;;;;;;-0.05;100.00;101272.91;4893837;29;20059;-72
2023/11/26 10:02:11;;;;;;;6.60;3.20;;;;;;;-0.05;100.00;101278.16;4899414;29;20736;-73
2023/11/26 10:04:52;;;;;;;8.70;4.43;;;;;;;-0.03;100.00;101267.44;4906577;29;20180;-73
2023/11/26 10:07:32;;;;;;;11.55;5.68;;;;;;;0.00;100.00;101280.25;4921876;29;20115;-73
2023/11/26 10:10:12;;;;;;;5.15;3.10;;;;;;;0.02;100.00;101283.50;4922076;29;20036;-72
2023/11/26 10:13:03;;;;;;;7.88;3.97;;;;;;;0.02;100.00;101294.03;4923986;29;21731;-72
2023/11/26 10:15:33;;;;;;;5.18;2.75;;;;;;;-0.01;100.00;101294.38;4884861;29;20417;-72
2023/11/26 10:18:10;;;;;;;6.28;3.55;;;;;;;-0.02;100.00;101292.75;4904314;29;20044;-72
2023/11/26 10:20:38;;;;;;;5.82;3.20;;;;;;;-0.05;100.00;101287.88;4920870;29;20035;-71
2023/11/26 10:23:06;;;;;;;5.95;3.70;;;;;;;-0.03;100.00;101285.88;4904590;29;20059;-72
2023/11/26 10:25:32;;;;;;;5.00;3.30;;;;;;;-0.01;100.00;101278.59;4903441;29;20040;-72
2023/11/26 10:28:02;;;;;;;9.82;3.90;;;;;;;-0.02;100.00;101276.97;4908929;29;20044;-72
2023/11/26 10:30:32;;;;;;;9.98;4.53;;;;;;;-0.02;100.00;101261.97;4921512;29;20039;-72
2023/11/26 10:33:06;;;;;;;12.10;4.78;;;;;;;0.02;100.00;101262.44;4910126;29;20123;-73
2023/11/26 10:35:43;;;;;;;9.63;4.80;;;;;;;0.03;100.00;101268.50;4902809;29;20524;-72
2023/11/26 10:38:09;;;;;;;7.50;4.75;;;;;;;0.04;100.00;101260.41;4914956;29;20036;-72
2023/11/26 10:40:35;;;;;;;10.50;5.22;;;;;;;0.07;100.00;101264.47;4922054;29;20046;-71
2023/11/26 10:43:09;;;;;;;11.38;4.57;;;;;;;0.08;100.00;101253.78;4911394;29;20068;-73
2023/11/26 10:45:37;;;;;;;9.00;4.25;;;;;;;0.08;100.00;101251.16;4917214;29;20046;-72
2023/11/26 10:48:09;;;;;;;8.98;4.20;;;;;;;0.08;100.00;101245.88;4892458;29;20050;-72
2023/11/26 10:51:05;;;;;;;11.20;4.70;;;;;;;0.08;100.00;101243.25;4882617;29;20031;-73
2023/11/26 10:53:49;;;;;;;8.65;4.57;;;;;;;0.05;100.00;101251.50;4904183;29;20191;-71
2023/11/26 10:56:17;;;;;;;9.65;4.93;;;;;;;0.09;100.00;101252.78;4876185;29;20063;-72
2023/11/26 10:58:47;;;;;;;7.70;4.28;;;;;;;0.09;100.00;101252.78;4886413;29;20040;-72
2023/11/26 11:01:14;;;;;;;7.43;4.22;;;;;;;0.14;100.00;101250.41;4905515;29;20032;-71
2023/11/26 11:03:39;;;;;;;;;;;;;;;0.17;100.00;101255.28;4871724;29;20038;-73
2023/11/26 11:06:06;;;;;;;7.70;4.68;;;;;;;0.20;100.00;101254.91;4909101;29;20327;-74
2023/11/26 11:08:33;;;;;;;7.07;4.65;;;;;;;0.21;100.00;101256.53;4917843;29;20048;-72
2023/11/26 11:11:36;;;;;;;8.90;4.95;;;;;;;0.25;100.00;101262.22;4888848;29;20071;-72
2023/11/26 11:14:03;;;;;;;7.32;4.70;;;;;;;0.28;100.00;101271.59;4914018;29;20032;-73
2023/11/26 11:16:29;;;;;;;7.20;5.38;;;;;;;0.32;100.00;101275.47;4877419;29;20139;-72
2023/11/26 11:18:56;;;;;;;6.70;4.68;;;;;;;0.35;100.00;101277.75;4890933;29;20040;-72
2023/11/26 11:21:22;;;;;;;12.10;5.80;;;;;;;0.37;100.00;101267.81;4903340;29;20040;-72
2023/11/26 11:23:52;;;;;;;15.52;5.72;;;;;;;0.36;100.00;101267.00;4880415;29;20036;-75
2023/11/26 11:26:20;;;;;;;7.75;5.22;;;;;;;0.37;100.00;101259.91;4903037;29;20043;-73